createdAt,value
2022-12-07T00:01:40.239Z,3.88
2022-12-07T00:04:08.818Z,3.87
2022-12-07T00:06:40.734Z,3.68
2022-12-07T00:09:10.742Z,3.52
2022-12-07T00:11:37.353Z,3.25
2022-12-07T00:14:07.727Z,3.22
2022-12-07T00:16:36.791Z,2.90
2022-12-07T00:19:04.002Z,2.73
2022-12-07T00:21:36.477Z,2.71
2022-12-07T00:24:05.961Z,2.55
2022-12-07T00:26:38.008Z,2.49
2022-12-07T00:29:14.121Z,2.48
2022-12-07T00:31:40.915Z,2.37
2022-12-07T00:34:12.657Z,2.29
2022-12-07T00:36:39.317Z,2.29
2022-12-07T00:39:06.013Z,2.28
2022-12-07T00:41:32.682Z,2.27
2022-12-07T00:43:59.323Z,2.23
2022-12-07T00:46:26.704Z,2.40
2022-12-07T00:48:54.561Z,2.36
2022-12-07T00:51:23.210Z,2.45
2022-12-07T00:53:50.401Z,2.40
2022-12-07T00:56:20.504Z,2.54
2022-12-07T00:58:54.918Z,2.75
2022-12-07T01:01:21.984Z,2.78
2022-12-07T01:03:49.150Z,2.93
2022-12-07T01:06:17.853Z,3.03
2022-12-07T01:08:45.111Z,3.02
2022-12-07T01:11:15.558Z,3.10
2022-12-07T01:13:42.945Z,3.25
2022-12-07T01:16:12.578Z,3.37
2022-12-07T01:18:40.166Z,3.34
2022-12-07T01:21:36.483Z,3.49
2022-12-07T01:24:04.450Z,3.53
2022-12-07T01:26:31.102Z,3.59
2022-12-07T01:29:00.098Z,3.68
2022-12-07T01:31:28.081Z,3.85
2022-12-07T01:33:58.014Z,3.88
2022-12-07T01:36:25.985Z,3.89
2022-12-07T01:38:57.724Z,3.66
2022-12-07T01:41:27.060Z,3.78
2022-12-07T01:44:33.674Z,3.81
2022-12-07T01:47:02.829Z,3.85
2022-12-07T01:49:55.553Z,3.89
2022-12-07T01:52:29.226Z,3.96
2022-12-07T01:55:00.501Z,3.94
2022-12-07T01:57:27.430Z,3.85
2022-12-07T01:59:56.597Z,3.70
2022-12-07T02:02:32.841Z,3.65
2022-12-07T02:05:02.085Z,3.66
2022-12-07T02:07:29.111Z,3.58
2022-12-07T02:09:55.976Z,3.50
2022-12-07T02:12:25.020Z,3.51
2022-12-07T02:14:52.814Z,3.39
2022-12-07T02:17:26.280Z,3.30
2022-12-07T02:20:31.938Z,3.22
2022-12-07T02:23:14.225Z,3.23
2022-12-07T02:26:29.365Z,3.36
2022-12-07T02:29:33.148Z,3.32
2022-12-07T02:32:16.855Z,3.29
2022-12-07T02:34:51.399Z,3.25
2022-12-07T02:37:27.020Z,3.33
2022-12-07T02:40:08.848Z,3.32
2022-12-07T02:42:41.044Z,3.38
2022-12-07T02:45:09.782Z,3.35
2022-12-07T02:47:37.944Z,3.31
2022-12-07T02:50:06.810Z,3.37
2022-12-07T02:52:33.907Z,3.47
2022-12-07T02:55:00.613Z,3.38
2022-12-07T02:57:48.010Z,3.41
2022-12-07T03:00:21.139Z,3.31
2022-12-07T03:02:55.411Z,3.15
2022-12-07T03:05:40.800Z,3.09
2022-12-07T03:08:28.983Z,2.89
2022-12-07T03:11:06.035Z,2.66
2022-12-07T03:13:35.949Z,2.74
2022-12-07T03:16:17.970Z,2.73
2022-12-07T03:18:57.897Z,2.71
2022-12-07T03:21:28.011Z,2.69
2022-12-07T03:24:01.117Z,2.63
2022-12-07T03:26:35.540Z,2.65
2022-12-07T03:29:11.262Z,2.63
2022-12-07T03:31:44.156Z,2.67
2022-12-07T03:34:35.403Z,2.63
2022-12-07T03:41:02.875Z,2.78
2022-12-07T03:43:31.143Z,2.80
2022-12-07T03:46:00.690Z,2.85
2022-12-07T03:48:47.898Z,2.91
2022-12-07T03:51:23.685Z,2.95
2022-12-07T03:53:58.022Z,2.93
2022-12-07T03:56:26.922Z,3.02
2022-12-07T03:58:54.916Z,2.95
2022-12-07T04:01:21.836Z,2.94
2022-12-07T04:03:48.533Z,2.97
2022-12-07T04:06:15.279Z,2.87
2022-12-07T04:08:42.025Z,2.83
2022-12-07T04:11:08.901Z,2.81
2022-12-07T04:13:55.682Z,2.73
2022-12-07T04:16:22.387Z,2.68
2022-12-07T04:18:49.295Z,2.70
2022-12-07T04:21:15.903Z,2.73
2022-12-07T04:23:42.532Z,2.68
2022-12-07T04:26:09.303Z,2.64
2022-12-07T04:28:36.002Z,2.63
2022-12-07T04:31:02.728Z,2.50
2022-12-07T04:33:29.327Z,2.42
2022-12-07T04:35:55.896Z,2.36
2022-12-07T04:38:22.553Z,2.49
2022-12-07T04:40:49.135Z,2.47
2022-12-07T04:43:15.923Z,2.45
2022-12-07T04:45:49.493Z,2.42
2022-12-07T04:48:16.329Z,2.47
2022-12-07T04:50:46.191Z,2.43
2022-12-07T04:53:13.136Z,2.42
2022-12-07T04:55:39.750Z,2.47
2022-12-07T04:58:06.414Z,2.44
2022-12-07T05:00:33.071Z,2.38
2022-12-07T05:02:59.764Z,2.33
2022-12-07T05:05:26.454Z,2.48
2022-12-07T05:07:53.155Z,2.38
2022-12-07T05:10:19.976Z,2.46
2022-12-07T05:12:46.937Z,2.43
2022-12-07T05:15:14.503Z,2.44
2022-12-07T05:17:41.253Z,2.45
2022-12-07T05:20:08.984Z,2.43
2022-12-07T05:22:36.022Z,2.35
2022-12-07T05:25:02.854Z,2.45
2022-12-07T05:27:29.541Z,2.41
2022-12-07T05:29:56.178Z,2.44
2022-12-07T05:32:22.887Z,2.45
2022-12-07T05:34:49.453Z,2.54
2022-12-07T05:37:16.046Z,2.50
2022-12-07T05:39:44.354Z,2.35
2022-12-07T05:42:15.030Z,2.41
2022-12-07T05:44:43.705Z,2.24
2022-12-07T05:47:10.977Z,2.20
2022-12-07T05:49:37.757Z,2.15
2022-12-07T05:52:05.012Z,2.11
2022-12-07T05:54:31.825Z,2.12
2022-12-07T05:56:58.929Z,2.08
2022-12-07T05:59:29.001Z,2.05
2022-12-07T06:01:58.595Z,1.81
2022-12-07T06:04:27.526Z,1.75
2022-12-07T06:06:54.663Z,1.58
2022-12-07T06:09:22.763Z,1.43
2022-12-07T06:12:08.415Z,1.53
2022-12-07T06:14:35.764Z,1.51
2022-12-07T06:17:02.740Z,1.27
2022-12-07T06:19:29.480Z,1.42
2022-12-07T06:21:57.697Z,1.50
2022-12-07T06:24:24.405Z,1.43
2022-12-07T06:26:51.061Z,1.50
2022-12-07T06:29:19.189Z,1.35
2022-12-07T06:31:46.294Z,1.41
2022-12-07T06:34:16.046Z,1.49
2022-12-07T06:36:42.696Z,1.49
2022-12-07T06:39:10.110Z,1.52
2022-12-07T06:41:38.047Z,1.50
2022-12-07T06:44:05.987Z,1.48
2022-12-07T06:49:12.944Z,1.25
2022-12-07T06:51:42.260Z,1.16
2022-12-07T06:54:14.163Z,1.33
2022-12-07T06:56:41.164Z,1.26
2022-12-07T06:59:08.477Z,1.27
2022-12-07T07:01:36.865Z,1.29
2022-12-07T07:04:04.076Z,1.29
2022-12-07T07:06:30.885Z,1.28
2022-12-07T07:08:57.604Z,1.27
2022-12-07T07:11:24.197Z,1.34
2022-12-07T07:13:50.798Z,1.40
2022-12-07T07:16:17.700Z,1.49
2022-12-07T07:18:44.537Z,1.42
2022-12-07T07:21:11.196Z,1.33
2022-12-07T07:23:37.844Z,1.52
2022-12-07T07:26:04.571Z,1.64
2022-12-07T07:28:31.404Z,2.19
2022-12-07T07:30:58.139Z,2.94
2022-12-07T07:33:24.959Z,3.54
2022-12-07T07:35:51.609Z,4.23
2022-12-07T07:38:18.264Z,4.64
2022-12-07T07:40:45.128Z,5.15
2022-12-07T07:43:11.908Z,5.51
2022-12-07T07:45:39.093Z,6.13
2022-12-07T07:48:06.017Z,6.44
2022-12-07T07:50:32.682Z,6.49
